Allenville, Illinois
Current Conditions -  °F | °C
As of 10:53 PM on Tuesday 21 Oct 2014 (Local Time) from KMTO Reporting Station
Clear Clear  
Wind Chill:   Ceiling: Unl
Heat Index:   Visibility: 10mi
Dew Point:   Wind: 5mph
Humidity: 86%   Direction: 40°NE
Pressure: 30.23"   Gusts: NA
Location:  39.5872°N, 88.5835°W
Report Text: KMTO 220353Z AUTO 04004KT 10SM CLR 06/04 A3023 RMK AO2 SLP237 T00610039
Loading
Personal Weather Stations






























Interactive Weather Map
Tropical Storm Tracking
New forecast layout! Learn more

10-Day Weather Forecast

Advertisements
Track Severe Weather on mobile